Item Display Status Serial CT Sensor

Mooring Depth: 1 m

 

Deployed Sensor

  • Serial Number: 14673
  • NDBC Property Number: 40638
  • Start Date: 1/10/2023 (11:11:57 Z)
  • End Date: Currently Active
Water Temperature [°C]     6 entries per hour
Showing data from 3/3/2024 (14:00:00 Z) to 3/2/2024 (00:00:01 Z)
Previous Next [ Day | 3-Days | 7-Days ]
First Last
Prev [ Day | 3-Days | 7-Days ] Next
First Last

Start Time:     :
End Time:     :     
Time (in GMT) :00 :50 :40 :30 :20 :10
Previous Next [ Day | 3-Days | 7-Days ]
First Last
Prev [ Day | 3-Days | 7-Days ] Next
First Last


123 => good data
MM => data is determined as missing
-- => data not received/configured
Back to Top Back to Top
3/3/2024 14:00 to 13:10 28.244 28.236 28.235 28.226 28.248 28.256
3/3/2024 13:00 to 12:10 28.236 28.264 28.254 28.249 28.253 28.249
3/3/2024 12:00 to 11:10 28.247 28.256 28.276 28.290 28.278 28.308
3/3/2024 11:00 to 10:10 28.320 28.311 28.298 28.330 28.323 28.322
3/3/2024 10:00 to 9:10 28.342 28.347 28.350 28.362 28.387 28.410
3/3/2024 09:00 to 8:10 28.392 28.419 28.433 28.463 28.459 28.367
3/3/2024 08:00 to 7:10 28.396 28.419 28.451 28.481 28.511 28.570
3/3/2024 07:00 to 6:10 28.611 28.666 28.589 28.617 28.615 28.642
3/3/2024 06:00 to 5:10 28.678 28.714 28.777 28.849 28.770 28.787
3/3/2024 05:00 to 4:10 28.725 28.894 28.899 28.863 28.991 29.094
3/3/2024 04:00 to 3:10 29.205 29.274 29.367 29.300 29.426 29.593
3/3/2024 03:00 to 2:10 29.464 29.472 29.331 29.428 29.459 29.697
3/3/2024 02:00 to 1:10 30.027 30.052 29.482 29.567 29.783 29.684
3/3/2024 01:00 to 0:10 29.789 29.653 29.700 29.923 29.561 29.595
3/3/2024 00:00 to 23:10 29.684 29.827 29.246 29.279 29.229 28.784
3/2/2024 23:00 to 22:10 28.645 28.974 28.772 28.756 28.764 28.773
3/2/2024 22:00 to 21:10 29.044 28.957 28.867 28.834 28.843 28.685
3/2/2024 21:00 to 20:10 28.681 28.895 28.805 28.774 29.095 29.036
3/2/2024 20:00 to 19:10 28.775 28.837 28.721 28.678 28.564 28.739
3/2/2024 19:00 to 18:10 28.599 28.661 28.855 28.644 28.574 28.532
3/2/2024 18:00 to 17:10 28.634 28.562 28.728 28.565 28.619 28.640
3/2/2024 17:00 to 16:10 28.563 28.511 28.495 28.434 28.450 28.399
3/2/2024 16:00 to 15:10 28.435 28.403 28.389 28.397 28.344 28.391
3/2/2024 15:00 to 14:10 28.364 28.366 28.312 28.237 28.246 28.249
3/2/2024 14:00 to 13:10 28.292 28.308 28.312 28.312 28.322 28.322
3/2/2024 13:00 to 12:10 28.394 28.404 28.420 28.426 28.464 28.451
3/2/2024 12:00 to 11:10 28.440 28.388 28.391 28.402 28.408 28.433
3/2/2024 11:00 to 10:10 28.425 28.449 28.441 28.447 28.442 28.411
3/2/2024 10:00 to 9:10 28.400 28.415 28.438 28.457 28.460 28.473
3/2/2024 09:00 to 8:10 28.457 28.481 28.500 28.506 28.522 28.535
3/2/2024 08:00 to 7:10 28.552 28.552 28.543 28.578 28.569 28.561
3/2/2024 07:00 to 6:10 28.581 28.615 28.610 28.605 28.654 28.676
3/2/2024 06:00 to 5:10 28.664 28.659 28.685 -- -- 28.705
3/2/2024 05:00 to 4:10 28.722 28.742 28.690 28.713 28.706 28.736
3/2/2024 04:00 to 3:10 28.726 28.778 28.761 28.769 28.845 28.824
3/2/2024 03:00 to 2:10 28.886 28.915 28.913 28.934 28.941 28.941
3/2/2024 02:00 to 1:10 28.911 28.960 28.988 29.038 29.008 28.959
3/2/2024 01:00 to 0:10 29.039 28.951 28.985 29.079 29.100 29.185

 

 

 

Conductivity [S/m]     6 entries per hour
Showing data from 3/3/2024 (14:00:00 Z) to 3/2/2024 (00:00:01 Z)
Previous Next [ Day | 3-Days | 7-Days ]
First Last
Prev [ Day | 3-Days | 7-Days ] Next
First Last

Start Time:     :
End Time:     :     
Time (in GMT) :00 :50 :40 :30 :20 :10
Previous Next [ Day | 3-Days | 7-Days ]
First Last
Prev [ Day | 3-Days | 7-Days ] Next
First Last


123 => good data
MM => data is determined as missing
-- => data not received/configured
Back to Top Back to Top
3/3/2024 14:00 to 13:10 5.37085 5.36910 5.36907 5.36744 5.36989 5.37015
3/3/2024 13:00 to 12:10 5.36624 5.36819 5.36720 5.36632 5.36806 5.36725
3/3/2024 12:00 to 11:10 5.36679 5.36860 5.37004 5.37088 5.36806 5.37013
3/3/2024 11:00 to 10:10 5.37154 5.37024 5.36967 5.37230 5.37042 5.37107
3/3/2024 10:00 to 9:10 5.37238 5.37242 5.37214 5.37223 5.37392 5.37531
3/3/2024 09:00 to 8:10 5.37421 5.37508 5.37592 5.37841 5.37738 5.36957
3/3/2024 08:00 to 7:10 5.37135 5.37274 5.37424 5.37694 5.37962 5.38408
3/3/2024 07:00 to 6:10 5.38871 5.39460 5.38683 5.38880 5.38852 5.39116
3/3/2024 06:00 to 5:10 5.39424 5.39805 5.40497 5.41322 5.40423 5.40554
3/3/2024 05:00 to 4:10 5.39928 5.41681 5.41718 5.41174 5.42474 5.43598
3/3/2024 04:00 to 3:10 5.44794 5.45553 5.46644 5.46006 5.47219 5.48958
3/3/2024 03:00 to 2:10 5.47652 5.47765 5.46050 5.47084 5.47440 5.49727
3/3/2024 02:00 to 1:10 5.53398 5.53757 5.47698 5.48154 5.50715 5.50676
3/3/2024 01:00 to 0:10 5.50210 5.49910 5.49745 5.52248 5.47867 5.49567
3/3/2024 00:00 to 23:10 5.50834 5.51043 5.43609 5.46548 5.44824 5.41600
3/2/2024 23:00 to 22:10 5.38885 5.44825 5.43010 5.41395 5.41076 5.40349
3/2/2024 22:00 to 21:10 5.43905 5.42094 5.42269 5.41274 5.43131 5.39473
3/2/2024 21:00 to 20:10 5.38983 5.43248 5.41814 5.42160 5.43895 5.44654
3/2/2024 20:00 to 19:10 5.41597 5.42102 5.40998 5.39587 5.39015 5.40249
3/2/2024 19:00 to 18:10 5.39665 5.39792 5.41491 5.39357 5.38990 5.38925
3/2/2024 18:00 to 17:10 5.40114 5.39314 5.40888 5.39117 5.39608 5.40069
3/2/2024 17:00 to 16:10 5.39848 5.39555 5.39393 5.38684 5.38935 5.38355
3/2/2024 16:00 to 15:10 5.38636 5.38203 5.38132 5.38258 5.37760 5.38431
3/2/2024 15:00 to 14:10 5.38122 5.38091 5.37485 5.37186 5.37632 5.37461
3/2/2024 14:00 to 13:10 5.38038 5.38291 5.38402 5.38425 5.38821 5.38701
3/2/2024 13:00 to 12:10 5.39508 5.39689 5.40011 5.40039 5.40504 5.40425
3/2/2024 12:00 to 11:10 5.40294 5.39588 5.39616 5.39861 5.39849 5.40164
3/2/2024 11:00 to 10:10 5.40004 5.40221 5.39966 5.40035 5.39990 5.39609
3/2/2024 10:00 to 9:10 5.39371 5.39582 5.39815 5.39910 5.39922 5.40012
3/2/2024 09:00 to 8:10 5.39789 5.40083 5.40275 5.40461 5.40616 5.40765
3/2/2024 08:00 to 7:10 5.40951 5.40921 5.40821 5.41150 5.41073 5.41053
3/2/2024 07:00 to 6:10 5.41311 5.41545 5.41552 5.41469 5.42075 5.42413
3/2/2024 06:00 to 5:10 5.42467 5.42516 5.42712 5.42974 5.43038 5.42955
3/2/2024 05:00 to 4:10 5.43098 5.43252 5.42785 5.42988 5.42829 5.43055
3/2/2024 04:00 to 3:10 5.43051 5.43639 5.43477 5.43628 5.44285 5.44108
3/2/2024 03:00 to 2:10 5.44682 5.45041 5.44994 5.45179 5.45239 5.45316
3/2/2024 02:00 to 1:10 5.45041 5.45587 5.45830 5.46405 5.46143 5.45682
3/2/2024 01:00 to 0:10 5.46473 5.45660 5.46110 5.46968 5.47318 5.48147

 

 

 

Salinity [psu]     6 entries per hour
Showing data from 3/3/2024 (14:00:00 Z) to 3/2/2024 (00:00:01 Z)
Previous Next [ Day | 3-Days | 7-Days ]
First Last
Prev [ Day | 3-Days | 7-Days ] Next
First Last

Start Time:     :
End Time:     :     
Time (in GMT) :00 :50 :40 :30 :20 :10
Previous Next [ Day | 3-Days | 7-Days ]
First Last
Prev [ Day | 3-Days | 7-Days ] Next
First Last


123 => good data
MM => data is determined as missing
-- => data not received/configured
Back to Top Back to Top
3/3/2024 14:00 to 13:10 33.07 33.06 33.06 33.06 33.06 33.06
3/3/2024 13:00 to 12:10 33.04 33.04 33.04 33.03 33.04 33.04
3/3/2024 12:00 to 11:10 33.04 33.04 33.04 33.04 33.03 33.02
3/3/2024 11:00 to 10:10 33.02 33.02 33.02 33.02 33.01 33.02
3/3/2024 10:00 to 9:10 33.01 33.01 33.00 33.00 32.99 32.98
3/3/2024 09:00 to 8:10 32.99 32.98 32.97 32.97 32.96 32.97
3/3/2024 08:00 to 7:10 32.97 32.96 32.95 32.95 32.94 32.93
3/3/2024 07:00 to 6:10 32.94 32.94 32.94 32.93 32.93 32.93
3/3/2024 06:00 to 5:10 32.93 32.93 32.93 32.94 32.93 32.93
3/3/2024 05:00 to 4:10 32.93 32.93 32.93 32.92 32.92 32.93
3/3/2024 04:00 to 3:10 32.93 32.94 32.95 32.95 32.94 32.95
3/3/2024 03:00 to 2:10 32.95 32.95 32.93 32.93 32.94 32.93
3/3/2024 02:00 to 1:10 32.95 32.96 32.94 32.91 32.94 33.00
3/3/2024 01:00 to 0:10 32.90 32.97 32.93 32.94 32.90 32.99
3/3/2024 00:00 to 23:10 33.01 32.93 32.82 33.00 32.92 33.00
3/2/2024 23:00 to 22:10 32.91 33.09 33.11 33.01 32.98 32.93
3/2/2024 22:00 to 21:10 32.98 32.92 32.99 32.95 33.07 32.93
3/2/2024 21:00 to 20:10 32.90 33.04 33.00 33.05 32.95 33.04
3/2/2024 20:00 to 19:10 33.01 33.00 33.01 32.94 32.98 32.94
3/2/2024 19:00 to 18:10 33.00 32.97 32.95 32.95 32.97 32.99
3/2/2024 18:00 to 17:10 33.01 33.00 32.99 32.99 32.98 33.00
3/2/2024 17:00 to 16:10 33.04 33.05 33.05 33.05 33.05 33.05
3/2/2024 16:00 to 15:10 33.04 33.04 33.04 33.04 33.05 33.06
3/2/2024 15:00 to 14:10 33.06 33.05 33.05 33.08 33.11 33.09
3/2/2024 14:00 to 13:10 33.10 33.11 33.11 33.11 33.13 33.13
3/2/2024 13:00 to 12:10 33.13 33.14 33.15 33.15 33.15 33.15
3/2/2024 12:00 to 11:10 33.15 33.14 33.14 33.15 33.15 33.15
3/2/2024 11:00 to 10:10 33.14 33.14 33.13 33.13 33.13 33.13
3/2/2024 10:00 to 9:10 33.12 33.12 33.12 33.12 33.11 33.11
3/2/2024 09:00 to 8:10 33.11 33.11 33.11 33.12 33.12 33.12
3/2/2024 08:00 to 7:10 33.12 33.12 33.12 33.12 33.12 33.12
3/2/2024 07:00 to 6:10 33.13 33.12 33.12 33.12 33.13 33.13
3/2/2024 06:00 to 5:10 33.15 33.15 33.15 -- -- 33.15
3/2/2024 05:00 to 4:10 33.15 33.15 33.15 33.15 33.14 33.14
3/2/2024 04:00 to 3:10 33.14 33.15 33.15 33.15 33.15 33.15
3/2/2024 03:00 to 2:10 33.14 33.15 33.15 33.14 33.14 33.15
3/2/2024 02:00 to 1:10 33.15 33.15 33.15 33.16 33.16 33.16
3/2/2024 01:00 to 0:10 33.16 33.17 33.17 33.17 33.18 33.17